createdAt,value
2022-07-27T00:01:05.809Z,94.61
2022-07-27T00:03:35.055Z,95.52
2022-07-27T00:06:03.114Z,95.62
2022-07-27T00:08:31.020Z,95.98
2022-07-27T00:10:58.806Z,94.30
2022-07-27T00:13:27.420Z,95.08
2022-07-27T00:15:55.768Z,94.70
2022-07-27T00:18:24.165Z,95.73
2022-07-27T00:20:53.340Z,95.34
2022-07-27T00:23:21.087Z,95.25
2022-07-27T00:25:48.927Z,94.95
2022-07-27T00:28:16.699Z,95.20
2022-07-27T00:30:44.636Z,96.55
2022-07-27T00:33:17.083Z,96.63
2022-07-27T00:35:45.852Z,96.85
2022-07-27T00:38:16.485Z,97.19
2022-07-27T00:40:45.084Z,97.10
2022-07-27T00:43:13.135Z,97.15
2022-07-27T00:45:41.635Z,96.91
2022-07-27T00:48:09.651Z,98.33
2022-07-27T00:50:38.650Z,99.25
2022-07-27T00:53:06.659Z,99.35
2022-07-27T00:55:36.319Z,98.89
2022-07-27T00:58:05.891Z,98.95
2022-07-27T01:00:33.682Z,99.58
2022-07-27T01:03:02.423Z,97.91
2022-07-27T01:05:40.070Z,97.78
2022-07-27T01:08:13.912Z,96.89
2022-07-27T01:10:44.407Z,96.94
2022-07-27T01:13:13.663Z,95.97
2022-07-27T01:15:42.776Z,97.29
2022-07-27T01:18:12.908Z,97.95
2022-07-27T01:20:41.417Z,97.03
2022-07-27T01:23:10.961Z,97.82
2022-07-27T01:25:41.235Z,98.07
2022-07-27T01:28:08.947Z,98.35
2022-07-27T01:30:37.014Z,97.34
2022-07-27T01:33:06.563Z,98.74
2022-07-27T01:35:35.143Z,99.88
2022-07-27T01:38:03.284Z,100.00
2022-07-27T01:40:34.002Z,100.00
2022-07-27T01:43:01.871Z,100.00
2022-07-27T01:45:29.919Z,100.00
2022-07-27T01:47:57.770Z,100.00
2022-07-27T01:50:25.533Z,100.00
2022-07-27T01:52:53.325Z,100.00
2022-07-27T01:55:21.131Z,100.00
2022-07-27T01:57:50.501Z,100.00
2022-07-27T02:00:18.712Z,100.00
2022-07-27T02:02:46.511Z,100.00
2022-07-27T02:05:14.434Z,100.00
2022-07-27T02:07:42.913Z,100.00
2022-07-27T02:10:11.697Z,100.00
2022-07-27T02:12:38.641Z,100.00
2022-07-27T02:15:14.799Z,100.00
2022-07-27T02:17:44.783Z,100.00
2022-07-27T02:20:15.259Z,100.00
2022-07-27T02:22:43.223Z,100.00
2022-07-27T02:25:12.595Z,100.00
2022-07-27T02:27:41.072Z,100.00
2022-07-27T02:30:11.982Z,100.00
2022-07-27T02:32:40.649Z,100.00
2022-07-27T02:35:18.558Z,100.00
2022-07-27T02:37:47.099Z,100.00
2022-07-27T02:40:17.024Z,100.00
2022-07-27T02:42:45.079Z,100.00
2022-07-27T02:45:14.385Z,100.00
2022-07-27T02:47:42.241Z,100.00
2022-07-27T02:50:10.698Z,100.00
2022-07-27T02:52:39.170Z,100.00
2022-07-27T02:55:08.399Z,100.00
2022-07-27T02:57:39.681Z,100.00
2022-07-27T03:00:10.184Z,100.00
2022-07-27T03:02:39.439Z,100.00
2022-07-27T03:05:08.568Z,100.00
2022-07-27T03:07:36.531Z,100.00
2022-07-27T03:10:05.138Z,100.00
2022-07-27T03:12:32.915Z,100.00
2022-07-27T03:15:00.751Z,100.00
2022-07-27T03:17:28.596Z,100.00
2022-07-27T03:19:57.721Z,100.00
2022-07-27T03:22:25.490Z,100.00
2022-07-27T03:24:53.283Z,100.00
2022-07-27T03:27:21.010Z,100.00
2022-07-27T03:29:48.802Z,100.00
2022-07-27T03:32:16.616Z,100.00
2022-07-27T03:34:44.401Z,100.00
2022-07-27T03:37:13.549Z,100.00
2022-07-27T03:39:41.270Z,100.00
2022-07-27T03:42:09.246Z,100.00
2022-07-27T03:44:37.027Z,100.00
2022-07-27T03:47:04.851Z,100.00
2022-07-27T03:49:33.017Z,100.00
2022-07-27T03:52:00.793Z,100.00
2022-07-27T03:54:29.947Z,100.00
2022-07-27T03:56:57.730Z,100.00
2022-07-27T03:59:27.474Z,100.00
2022-07-27T04:01:55.901Z,100.00
2022-07-27T04:04:23.767Z,100.00
2022-07-27T04:06:51.555Z,100.00
2022-07-27T04:09:19.440Z,100.00
2022-07-27T04:11:50.659Z,100.00
2022-07-27T04:14:19.319Z,100.00
2022-07-27T04:16:47.910Z,100.00
2022-07-27T04:19:16.305Z,100.00
2022-07-27T04:21:44.219Z,100.00
2022-07-27T04:24:12.042Z,100.00
2022-07-27T04:26:39.851Z,100.00
2022-07-27T04:29:09.307Z,100.00
2022-07-27T04:31:37.602Z,100.00
2022-07-27T04:34:05.379Z,100.00
2022-07-27T04:36:33.144Z,100.00
2022-07-27T04:39:00.951Z,100.00
2022-07-27T04:41:30.222Z,100.00
2022-07-27T04:43:58.525Z,100.00
2022-07-27T04:46:29.509Z,100.00
2022-07-27T04:48:57.595Z,100.00
2022-07-27T04:51:25.482Z,100.00
2022-07-27T04:53:58.593Z,100.00
2022-07-27T04:56:27.244Z,100.00
2022-07-27T04:58:55.412Z,100.00
2022-07-27T05:01:25.469Z,100.00
2022-07-27T05:03:55.533Z,100.00
2022-07-27T05:06:23.327Z,100.00
2022-07-27T05:08:51.096Z,100.00
2022-07-27T05:11:19.083Z,100.00
2022-07-27T05:13:46.862Z,100.00
2022-07-27T05:16:14.693Z,100.00
2022-07-27T05:18:42.492Z,100.00
2022-07-27T05:21:11.622Z,100.00
2022-07-27T05:23:47.081Z,100.00
2022-07-27T05:26:14.828Z,100.00
2022-07-27T05:28:42.684Z,99.94
2022-07-27T05:31:10.451Z,99.57
2022-07-27T05:33:38.248Z,99.15
2022-07-27T05:36:07.754Z,98.18
2022-07-27T05:38:40.125Z,97.83
2022-07-27T05:41:11.938Z,97.82
2022-07-27T05:43:39.825Z,97.32
2022-07-27T05:46:07.745Z,94.90
2022-07-27T05:48:35.660Z,93.10
2022-07-27T05:51:03.433Z,92.81
2022-07-27T05:53:31.202Z,93.79
2022-07-27T05:56:00.355Z,92.17
2022-07-27T05:58:29.411Z,91.83
2022-07-27T06:00:57.493Z,90.88
2022-07-27T06:03:25.418Z,90.42
2022-07-27T06:06:13.342Z,93.10
2022-07-27T06:08:40.152Z,95.86
2022-07-27T06:11:09.302Z,96.68
2022-07-27T06:13:37.130Z,96.36
2022-07-27T06:16:10.197Z,93.04
2022-07-27T06:18:38.087Z,94.50
2022-07-27T06:21:06.019Z,93.41
2022-07-27T06:23:33.832Z,94.42
2022-07-27T06:26:01.690Z,93.58
2022-07-27T06:28:30.878Z,90.74
2022-07-27T06:30:58.909Z,87.86
2022-07-27T06:33:29.371Z,86.79
2022-07-27T06:35:58.683Z,88.68
2022-07-27T06:38:27.377Z,88.23
2022-07-27T06:40:56.150Z,87.02
2022-07-27T06:43:25.585Z,85.23
2022-07-27T06:45:56.104Z,83.76
2022-07-27T06:48:23.960Z,82.97
2022-07-27T06:50:52.430Z,81.83
2022-07-27T06:53:21.781Z,83.79
2022-07-27T06:55:49.829Z,83.53
2022-07-27T06:58:17.743Z,81.02
2022-07-27T07:00:46.242Z,79.82
2022-07-27T07:03:15.484Z,79.50
2022-07-27T07:05:45.784Z,79.20
2022-07-27T07:08:14.679Z,79.05
2022-07-27T07:10:44.757Z,78.80
2022-07-27T07:13:13.442Z,77.70
2022-07-27T07:15:43.194Z,75.21
2022-07-27T07:18:12.386Z,76.03
2022-07-27T07:20:42.186Z,71.86
2022-07-27T07:23:10.909Z,71.92
2022-07-27T07:25:40.719Z,69.68
2022-07-27T07:28:08.920Z,68.76
2022-07-27T07:30:37.324Z,70.23
2022-07-27T07:33:05.589Z,71.98
2022-07-27T07:35:33.542Z,69.50
2022-07-27T07:38:03.181Z,70.63
2022-07-27T07:40:46.502Z,71.25
2022-07-27T07:43:14.995Z,69.24
2022-07-27T07:45:50.410Z,66.80
2022-07-27T07:48:20.813Z,64.75
2022-07-27T07:50:52.464Z,65.37
2022-07-27T07:53:23.466Z,65.92
2022-07-27T07:55:52.044Z,64.38
2022-07-27T07:58:20.118Z,63.02
2022-07-27T08:00:48.197Z,57.79
2022-07-27T08:03:16.465Z,59.38
2022-07-27T08:05:44.393Z,59.92
2022-07-27T08:08:12.241Z,59.37
2022-07-27T08:10:41.524Z,58.05
2022-07-27T08:13:09.732Z,59.64
2022-07-27T08:15:37.573Z,57.51
2022-07-27T08:18:06.369Z,55.55
2022-07-27T08:20:35.457Z,53.18
2022-07-27T08:23:03.723Z,53.98
2022-07-27T08:25:31.878Z,53.22
2022-07-27T08:28:02.755Z,53.51
2022-07-27T08:30:33.040Z,55.31
2022-07-27T08:33:03.357Z,54.37
2022-07-27T08:35:32.737Z,52.46
2022-07-27T08:38:01.843Z,53.65
2022-07-27T08:40:40.419Z,54.15
2022-07-27T08:43:10.863Z,54.12
2022-07-27T08:45:41.217Z,51.85
2022-07-27T08:48:13.541Z,51.73
2022-07-27T08:50:42.784Z,52.80
2022-07-27T08:53:12.340Z,49.25
2022-07-27T08:55:41.642Z,48.05
2022-07-27T08:58:12.238Z,49.50
2022-07-27T09:00:42.303Z,48.41
2022-07-27T09:03:18.195Z,48.26
2022-07-27T09:05:48.890Z,48.84
2022-07-27T09:08:21.395Z,51.44
2022-07-27T09:10:50.172Z,46.81
2022-07-27T09:13:21.718Z,48.64
2022-07-27T09:18:40.605Z,49.20
2022-07-27T09:21:13.121Z,45.99
2022-07-27T09:23:42.344Z,43.85
2022-07-27T09:26:24.792Z,45.15
2022-07-27T09:29:01.690Z,46.03
2022-07-27T09:31:29.707Z,43.88
2022-07-27T09:33:59.367Z,43.11
2022-07-27T09:36:28.856Z,42.56
2022-07-27T09:39:11.313Z,40.19
2022-07-27T09:41:45.733Z,39.62
2022-07-27T09:44:32.821Z,39.96
2022-07-27T09:47:01.256Z,40.69
2022-07-27T09:49:32.162Z,39.52
2022-07-27T09:52:02.040Z,39.56
2022-07-27T09:54:43.308Z,38.97
2022-07-27T09:57:11.621Z,40.62
2022-07-27T09:59:40.864Z,39.42
2022-07-27T10:02:09.349Z,39.08
2022-07-27T10:04:37.258Z,38.09
2022-07-27T10:07:08.298Z,35.50
2022-07-27T10:09:40.436Z,36.80
2022-07-27T10:12:09.508Z,35.01
2022-07-27T10:14:37.540Z,35.97
2022-07-27T10:17:07.763Z,37.49
2022-07-27T10:19:42.313Z,36.80
2022-07-27T10:22:10.030Z,36.76
2022-07-27T10:24:37.942Z,33.98
2022-07-27T10:27:22.947Z,34.60
2022-07-27T10:29:51.853Z,34.01
2022-07-27T10:32:30.978Z,32.85
2022-07-27T10:34:59.564Z,33.42
2022-07-27T10:37:29.591Z,34.15
2022-07-27T10:40:16.800Z,33.17
2022-07-27T10:42:50.425Z,33.67
2022-07-27T10:45:22.038Z,32.78
2022-07-27T10:47:52.802Z,34.34
2022-07-27T10:50:32.522Z,32.08
2022-07-27T10:53:06.673Z,32.41
2022-07-27T10:55:48.339Z,33.14
2022-07-27T10:58:52.583Z,32.56
2022-07-27T11:01:22.824Z,32.46
2022-07-27T11:03:56.154Z,33.90
2022-07-27T11:06:33.425Z,34.65
2022-07-27T11:11:59.275Z,35.59
2022-07-27T11:14:30.635Z,35.83
2022-07-27T11:19:54.874Z,33.64
2022-07-27T11:25:24.526Z,35.15
2022-07-27T11:27:52.690Z,34.45
2022-07-27T11:30:24.623Z,34.97
2022-07-27T11:32:52.540Z,34.56
2022-07-27T11:35:22.074Z,33.95
2022-07-27T11:38:03.002Z,33.13
2022-07-27T11:41:12.938Z,33.00
2022-07-27T11:43:38.677Z,31.56
2022-07-27T11:46:19.354Z,30.88
2022-07-27T11:49:17.900Z,30.81
2022-07-27T11:51:44.481Z,31.65
2022-07-27T11:54:14.540Z,31.29
2022-07-27T11:56:46.026Z,32.10
2022-07-27T11:59:16.820Z,32.05
2022-07-27T12:01:48.809Z,31.53
2022-07-27T12:04:23.682Z,32.84
2022-07-27T12:07:06.866Z,33.67
2022-07-27T12:09:38.691Z,34.16
2022-07-27T12:12:15.182Z,33.45
2022-07-27T12:14:45.927Z,32.77
2022-07-27T12:17:32.014Z,30.87
2022-07-27T12:20:02.567Z,30.33
2022-07-27T12:22:35.270Z,29.71
2022-07-27T12:25:12.590Z,30.18
2022-07-27T12:27:54.848Z,31.34
2022-07-27T12:30:31.241Z,31.18
2022-07-27T12:32:59.826Z,30.77
2022-07-27T12:35:35.959Z,31.22
2022-07-27T12:38:07.503Z,31.66
2022-07-27T12:40:36.608Z,32.28
2022-07-27T12:43:06.487Z,32.63
2022-07-27T12:45:36.419Z,31.82
2022-07-27T12:48:13.280Z,30.62
2022-07-27T12:50:42.583Z,32.10
2022-07-27T12:53:13.811Z,32.87
2022-07-27T12:55:42.431Z,31.09
2022-07-27T12:58:15.472Z,33.01
2022-07-27T13:00:43.729Z,31.47
2022-07-27T13:03:11.588Z,31.93
2022-07-27T13:05:39.398Z,32.78
2022-07-27T13:08:10.465Z,32.81
2022-07-27T13:10:39.610Z,31.27
2022-07-27T13:13:09.443Z,31.15
2022-07-27T13:15:37.627Z,32.78
2022-07-27T13:18:08.284Z,32.88
2022-07-27T13:20:36.517Z,32.86
2022-07-27T13:23:05.521Z,31.39
2022-07-27T13:25:33.293Z,31.50
2022-07-27T13:28:02.411Z,31.42
2022-07-27T13:30:30.432Z,31.97
2022-07-27T13:32:58.925Z,31.58
2022-07-27T13:35:26.707Z,32.29
2022-07-27T13:37:54.670Z,32.08
2022-07-27T13:40:22.876Z,32.21
2022-07-27T13:42:50.631Z,32.21
2022-07-27T13:45:19.716Z,32.64
2022-07-27T13:47:47.544Z,32.22
2022-07-27T13:50:19.509Z,33.39
2022-07-27T13:52:48.472Z,33.89
2022-07-27T13:55:17.306Z,33.76
2022-07-27T13:57:45.292Z,32.62
2022-07-27T14:00:14.215Z,31.16
2022-07-27T14:02:43.592Z,30.95
2022-07-27T14:05:14.567Z,31.74
2022-07-27T14:07:43.963Z,30.22
2022-07-27T14:10:30.423Z,29.61
2022-07-27T14:13:08.423Z,30.61
2022-07-27T14:15:50.331Z,29.32
2022-07-27T14:18:25.392Z,28.33
2022-07-27T14:20:54.119Z,27.57
2022-07-27T14:23:22.249Z,27.16
2022-07-27T14:25:51.347Z,27.47
2022-07-27T14:28:19.225Z,28.54
2022-07-27T14:30:47.181Z,28.47
2022-07-27T14:33:15.082Z,29.90
2022-07-27T14:35:44.572Z,29.86
2022-07-27T14:38:12.638Z,30.31
2022-07-27T14:40:40.914Z,31.28
2022-07-27T14:43:09.713Z,31.89
2022-07-27T14:45:45.280Z,32.87
2022-07-27T14:48:21.488Z,32.61
2022-07-27T14:50:54.564Z,32.20
2022-07-27T14:53:22.333Z,31.44
2022-07-27T14:55:50.226Z,30.96
2022-07-27T14:58:18.133Z,31.19
2022-07-27T15:00:46.262Z,30.08
2022-07-27T15:03:15.130Z,31.38
2022-07-27T15:05:49.417Z,30.92
2022-07-27T15:08:20.362Z,32.20
2022-07-27T15:10:48.904Z,31.14
2022-07-27T15:13:18.147Z,31.96
2022-07-27T15:15:48.371Z,31.26
2022-07-27T15:18:18.710Z,31.63
2022-07-27T15:20:46.695Z,31.64
2022-07-27T15:23:14.469Z,31.50
2022-07-27T15:25:43.608Z,32.13
2022-07-27T15:28:12.119Z,32.52
2022-07-27T15:30:40.062Z,32.18
2022-07-27T15:33:08.425Z,31.96
2022-07-27T15:35:36.246Z,32.47
2022-07-27T15:38:04.235Z,32.50
2022-07-27T15:40:42.367Z,32.88
2022-07-27T15:43:13.612Z,33.07
2022-07-27T15:45:42.639Z,33.34
2022-07-27T15:48:12.196Z,33.54
2022-07-27T15:50:42.100Z,34.42
2022-07-27T15:53:10.878Z,34.56
2022-07-27T15:55:39.033Z,34.34
2022-07-27T15:58:08.179Z,34.25
2022-07-27T16:00:41.265Z,34.13
2022-07-27T16:03:10.127Z,33.12
2022-07-27T16:05:39.001Z,33.23
2022-07-27T16:08:09.548Z,33.84
2022-07-27T16:10:37.550Z,33.72
2022-07-27T16:13:05.986Z,33.00
2022-07-27T16:15:52.183Z,33.52
2022-07-27T16:18:21.869Z,33.97
2022-07-27T16:20:49.911Z,33.95
2022-07-27T16:23:21.170Z,32.92
2022-07-27T16:26:07.524Z,34.59
2022-07-27T16:28:39.400Z,35.11
2022-07-27T16:31:10.200Z,34.43
2022-07-27T16:33:41.216Z,34.69
2022-07-27T16:36:10.070Z,34.95
2022-07-27T16:38:38.271Z,34.47
2022-07-27T16:41:12.148Z,34.48
2022-07-27T16:43:40.026Z,34.40
2022-07-27T16:46:10.419Z,34.02
2022-07-27T16:48:42.612Z,33.96
2022-07-27T16:51:12.758Z,34.08
2022-07-27T16:53:42.270Z,34.77
2022-07-27T16:56:11.513Z,34.63
2022-07-27T16:58:40.186Z,33.94
2022-07-27T17:01:08.929Z,34.23
2022-07-27T17:03:37.702Z,34.13
2022-07-27T17:06:07.470Z,33.48
2022-07-27T17:08:36.653Z,33.36
2022-07-27T17:11:06.178Z,34.30
2022-07-27T17:13:34.916Z,33.11
2022-07-27T17:16:03.620Z,33.87
2022-07-27T17:18:37.240Z,34.16
2022-07-27T17:21:12.370Z,35.33
2022-07-27T17:23:40.588Z,36.30
2022-07-27T17:26:09.749Z,35.63
2022-07-27T17:28:39.332Z,35.08
2022-07-27T17:31:09.748Z,35.09
2022-07-27T17:33:38.310Z,34.81
2022-07-27T17:36:14.014Z,36.37
2022-07-27T17:38:42.798Z,36.37
2022-07-27T17:41:10.691Z,36.08
2022-07-27T17:43:39.413Z,36.52
2022-07-27T17:46:07.654Z,36.03
2022-07-27T17:48:35.738Z,35.96
2022-07-27T17:51:03.578Z,37.25
2022-07-27T17:53:32.772Z,35.20
2022-07-27T17:56:00.662Z,36.02
2022-07-27T17:58:30.495Z,36.25
2022-07-27T18:00:58.787Z,37.12
2022-07-27T18:03:27.069Z,36.61
2022-07-27T18:05:55.636Z,37.30
2022-07-27T18:08:25.550Z,37.47
2022-07-27T18:10:55.012Z,38.09
2022-07-27T18:13:22.965Z,38.49
2022-07-27T18:15:51.378Z,39.76
2022-07-27T18:18:22.114Z,39.01
2022-07-27T18:20:52.264Z,39.85
2022-07-27T18:23:20.986Z,39.27
2022-07-27T18:25:48.965Z,39.21
2022-07-27T18:28:18.960Z,39.78
2022-07-27T18:30:49.377Z,42.64
2022-07-27T18:33:18.149Z,41.72
2022-07-27T18:35:47.306Z,41.17
2022-07-27T18:38:16.815Z,40.95
2022-07-27T18:40:48.102Z,41.02
2022-07-27T18:43:16.551Z,43.60
2022-07-27T18:45:45.746Z,43.37
2022-07-27T18:48:13.560Z,44.48
2022-07-27T18:50:41.916Z,45.61
2022-07-27T18:53:10.291Z,47.66
2022-07-27T18:55:38.674Z,46.65
2022-07-27T18:58:06.951Z,46.10
2022-07-27T19:00:35.004Z,43.56
2022-07-27T19:03:04.700Z,43.25
2022-07-27T19:05:41.310Z,44.17
2022-07-27T19:08:13.146Z,43.58
2022-07-27T19:10:42.463Z,43.52
2022-07-27T19:13:10.725Z,45.00
2022-07-27T19:15:40.940Z,45.04
2022-07-27T19:18:10.154Z,43.85
2022-07-27T19:20:38.085Z,44.28
2022-07-27T19:23:05.966Z,44.41
2022-07-27T19:25:34.612Z,44.90
2022-07-27T19:28:02.664Z,45.20
2022-07-27T19:30:30.627Z,45.00
2022-07-27T19:32:59.016Z,47.53
2022-07-27T19:35:28.572Z,48.02
2022-07-27T19:37:56.379Z,48.76
2022-07-27T19:43:12.395Z,52.72
2022-07-27T19:45:40.428Z,53.67
2022-07-27T19:48:08.606Z,56.02
2022-07-27T19:50:38.031Z,56.37
2022-07-27T19:53:06.113Z,57.99
2022-07-27T19:55:34.587Z,58.12
2022-07-27T19:58:02.770Z,57.68
2022-07-27T20:00:33.528Z,59.35
2022-07-27T20:03:01.537Z,60.20
2022-07-27T20:05:29.696Z,59.88
2022-07-27T20:07:59.108Z,59.82
2022-07-27T20:10:27.140Z,59.51
2022-07-27T20:12:54.936Z,61.18
2022-07-27T20:15:22.868Z,61.45
2022-07-27T20:17:51.005Z,60.42
2022-07-27T20:20:19.003Z,58.85
2022-07-27T20:22:46.845Z,58.28
2022-07-27T20:25:18.388Z,59.37
2022-07-27T20:27:47.249Z,60.21
2022-07-27T20:30:17.213Z,61.20
2022-07-27T20:32:45.554Z,62.02
2022-07-27T20:35:13.336Z,61.03
2022-07-27T20:37:41.174Z,61.28
2022-07-27T20:40:11.512Z,61.90
2022-07-27T20:42:41.427Z,61.28
2022-07-27T20:45:11.513Z,62.36
2022-07-27T20:47:39.662Z,61.51
2022-07-27T20:50:09.136Z,61.62
2022-07-27T20:52:36.984Z,61.87
2022-07-27T20:55:05.678Z,61.17
2022-07-27T20:57:33.706Z,60.66
2022-07-27T21:00:03.054Z,62.33
2022-07-27T21:02:30.870Z,62.36
2022-07-27T21:04:59.296Z,62.23
2022-07-27T21:07:27.982Z,62.80
2022-07-27T21:09:55.747Z,62.99
2022-07-27T21:12:23.556Z,63.53
2022-07-27T21:14:51.342Z,64.10
2022-07-27T21:17:20.619Z,64.44
2022-07-27T21:19:48.431Z,65.90
2022-07-27T21:22:16.213Z,65.38
2022-07-27T21:24:43.004Z,65.26
2022-07-27T21:27:12.696Z,66.19
2022-07-27T21:29:40.705Z,65.29
2022-07-27T21:32:08.582Z,66.27
2022-07-27T21:34:37.715Z,65.30
2022-07-27T21:37:05.492Z,67.01
2022-07-27T21:39:33.394Z,67.12
2022-07-27T21:42:02.402Z,67.76
2022-07-27T21:44:30.501Z,67.01
2022-07-27T21:46:58.254Z,67.08
2022-07-27T21:49:33.994Z,65.55
2022-07-27T21:52:03.663Z,66.78
2022-07-27T21:54:31.403Z,67.46
2022-07-27T21:56:59.181Z,67.88
2022-07-27T21:59:26.934Z,66.94
2022-07-27T22:01:54.738Z,67.13
2022-07-27T22:04:23.139Z,68.56
2022-07-27T22:06:51.043Z,69.51
2022-07-27T22:09:21.047Z,70.56
2022-07-27T22:11:48.881Z,69.88
2022-07-27T22:14:17.416Z,69.92
2022-07-27T22:16:45.619Z,71.45
2022-07-27T22:19:14.155Z,71.33
2022-07-27T22:21:41.952Z,70.78
2022-07-27T22:24:10.144Z,70.43
2022-07-27T22:26:39.976Z,69.30
2022-07-27T22:29:07.876Z,69.77
2022-07-27T22:31:35.668Z,70.79
2022-07-27T22:34:03.490Z,70.25
2022-07-27T22:36:32.443Z,70.50
2022-07-27T22:39:00.344Z,70.93
2022-07-27T22:41:28.111Z,70.86
2022-07-27T22:43:57.516Z,71.47
2022-07-27T22:46:25.905Z,72.12
2022-07-27T22:48:54.006Z,71.51
2022-07-27T22:51:21.917Z,72.42
2022-07-27T22:53:49.694Z,71.88
2022-07-27T22:56:17.649Z,72.08
2022-07-27T22:58:45.857Z,72.71
2022-07-27T23:01:46.431Z,74.24
2022-07-27T23:04:03.125Z,74.17
2022-07-27T23:06:30.946Z,74.00
2022-07-27T23:08:58.705Z,75.13
2022-07-27T23:11:26.464Z,75.36
2022-07-27T23:13:54.467Z,75.69
2022-07-27T23:16:23.744Z,76.71
2022-07-27T23:18:51.621Z,75.75
2022-07-27T23:21:19.400Z,76.42
2022-07-27T23:23:53.442Z,76.36
2022-07-27T23:26:23.045Z,77.55
2022-07-27T23:28:54.120Z,78.04
2022-07-27T23:31:23.527Z,77.75
2022-07-27T23:33:51.430Z,78.07
2022-07-27T23:36:19.252Z,78.43
2022-07-27T23:38:47.630Z,79.06
2022-07-27T23:41:16.651Z,79.08
2022-07-27T23:43:45.022Z,79.57
2022-07-27T23:46:12.986Z,81.25
2022-07-27T23:48:42.355Z,81.80
2022-07-27T23:51:10.194Z,82.89
2022-07-27T23:53:37.972Z,82.56
2022-07-27T23:56:06.359Z,82.21
2022-07-27T23:58:34.186Z,82.83
